createdAt,value
2023-01-12T01:01:18.115Z,25.00
2023-01-12T01:02:19.088Z,25.00
2023-01-12T01:03:18.942Z,25.00
2023-01-12T01:04:18.916Z,25.00
2023-01-12T01:05:18.886Z,25.00
2023-01-12T01:06:18.847Z,25.00
2023-01-12T01:07:18.873Z,0.00
2023-01-12T01:08:18.811Z,0.00
2023-01-12T01:09:18.765Z,0.00
2023-01-12T01:10:18.731Z,0.00
2023-01-12T01:11:18.707Z,0.00
2023-01-12T01:12:18.708Z,3.81
2023-01-12T01:13:18.658Z,18.17
2023-01-12T01:14:18.626Z,24.10
2023-01-12T01:15:18.623Z,25.00
2023-01-12T01:16:18.648Z,25.00
2023-01-12T01:17:18.600Z,25.00
2023-01-12T01:18:18.517Z,25.00
2023-01-12T01:19:18.493Z,26.96
2023-01-12T01:20:18.468Z,26.27
2023-01-12T01:21:18.449Z,25.93
2023-01-12T01:22:18.413Z,28.43
2023-01-12T01:23:18.388Z,25.57
2023-01-12T01:24:18.379Z,25.00
2023-01-12T01:25:18.363Z,26.50
2023-01-12T01:26:18.312Z,25.00
2023-01-12T01:27:18.284Z,25.85
2023-01-12T01:28:18.262Z,28.15
2023-01-12T01:29:18.244Z,26.54
2023-01-12T01:30:18.213Z,29.06
2023-01-12T01:31:18.236Z,26.57
2023-01-12T01:32:18.165Z,25.35
2023-01-12T01:33:18.168Z,32.78
2023-01-12T01:34:18.172Z,26.75
2023-01-12T01:35:18.100Z,27.40
2023-01-12T01:36:18.080Z,27.67
2023-01-12T01:37:18.059Z,25.00
2023-01-12T01:38:18.034Z,25.69
2023-01-12T01:39:18.014Z,25.00
2023-01-12T01:40:17.995Z,27.92
2023-01-12T01:41:17.973Z,25.00
2023-01-12T01:42:17.951Z,30.35
2023-01-12T01:43:17.926Z,30.04
2023-01-12T01:44:17.906Z,30.65
2023-01-12T01:45:17.880Z,26.83
2023-01-12T01:46:17.888Z,27.30
2023-01-12T01:47:17.836Z,26.69
2023-01-12T01:48:17.856Z,27.81
2023-01-12T01:49:17.834Z,25.74
2023-01-12T01:50:17.769Z,25.88
2023-01-12T01:51:17.729Z,29.22
2023-01-12T01:52:17.722Z,26.76
2023-01-12T01:53:17.685Z,28.60
2023-01-12T01:54:17.663Z,25.82
2023-01-12T01:55:17.630Z,26.43
2023-01-12T01:56:17.605Z,28.16
2023-01-12T01:57:17.586Z,27.81
2023-01-12T01:58:17.582Z,35.53
2023-01-12T01:59:17.525Z,27.13
2023-01-12T02:00:17.504Z,33.00
2023-01-12T02:01:17.535Z,31.19
2023-01-12T02:02:17.523Z,36.29
2023-01-12T02:03:17.436Z,29.74
2023-01-12T02:04:17.446Z,27.12
2023-01-12T02:05:17.456Z,30.86
2023-01-12T02:06:17.353Z,28.27
2023-01-12T02:07:17.335Z,26.88
2023-01-12T02:08:17.352Z,27.01
2023-01-12T02:09:17.279Z,28.29
2023-01-12T02:10:17.245Z,32.89
2023-01-12T02:11:17.222Z,31.94
2023-01-12T02:12:17.192Z,29.68
2023-01-12T02:13:17.161Z,31.08
2023-01-12T02:14:17.154Z,33.18
2023-01-12T02:15:17.096Z,28.10
2023-01-12T02:16:17.128Z,30.26
2023-01-12T02:17:17.052Z,30.53
2023-01-12T02:18:17.014Z,28.92
2023-01-12T02:19:17.023Z,31.88
2023-01-12T02:20:16.968Z,34.78
2023-01-12T02:21:16.961Z,31.06
2023-01-12T02:22:16.912Z,31.65
2023-01-12T02:23:16.895Z,35.62
2023-01-12T02:24:16.992Z,35.15
2023-01-12T02:25:16.845Z,34.91
2023-01-12T02:26:16.818Z,28.12
2023-01-12T02:27:16.785Z,31.00
2023-01-12T02:28:16.780Z,35.84
2023-01-12T02:29:16.753Z,32.64
2023-01-12T02:30:16.726Z,31.95
2023-01-12T02:31:16.750Z,34.98
2023-01-12T02:32:16.660Z,31.30
2023-01-12T02:33:16.640Z,31.50
2023-01-12T02:34:16.628Z,33.97
2023-01-12T02:35:16.601Z,35.57
2023-01-12T02:36:16.580Z,31.08
2023-01-12T02:37:16.633Z,31.42
2023-01-12T02:38:16.531Z,33.94
2023-01-12T02:39:16.506Z,34.54
2023-01-12T02:40:16.482Z,31.74
2023-01-12T02:41:16.457Z,31.89
2023-01-12T02:42:16.444Z,27.52
2023-01-12T02:43:16.397Z,31.66
2023-01-12T02:44:16.370Z,34.69
2023-01-12T02:45:16.347Z,33.65
2023-01-12T02:46:16.355Z,30.35
2023-01-12T02:47:16.299Z,31.46
2023-01-12T02:48:16.271Z,33.63
2023-01-12T02:49:16.253Z,27.86
2023-01-12T02:50:16.211Z,33.56
2023-01-12T02:51:16.188Z,34.01
2023-01-12T02:52:16.921Z,35.06
2023-01-12T02:53:16.153Z,33.74
2023-01-12T02:54:16.108Z,27.77
2023-01-12T02:55:16.080Z,26.46
2023-01-12T02:56:16.090Z,26.87
2023-01-12T02:57:16.030Z,27.41
2023-01-12T02:58:16.002Z,32.08
2023-01-12T02:59:15.988Z,32.52
2023-01-12T03:00:15.948Z,32.33
2023-01-12T03:01:16.015Z,31.44
2023-01-12T03:02:15.897Z,33.30
2023-01-12T03:03:15.970Z,34.83
2023-01-12T03:04:15.843Z,33.60
2023-01-12T03:05:15.827Z,34.60
2023-01-12T03:06:15.786Z,33.77
2023-01-12T03:07:15.758Z,30.55
2023-01-12T03:08:15.736Z,31.58
2023-01-12T03:09:15.749Z,36.57
2023-01-12T03:10:15.702Z,34.92
2023-01-12T03:11:15.660Z,30.79
2023-01-12T03:12:15.629Z,29.24
2023-01-12T03:13:15.614Z,26.49
2023-01-12T03:14:15.635Z,32.94
2023-01-12T03:15:15.575Z,35.78
2023-01-12T03:16:15.638Z,35.18
2023-01-12T03:17:15.524Z,40.35
2023-01-12T03:18:15.488Z,35.80
2023-01-12T03:19:15.465Z,41.42
2023-01-12T03:20:15.438Z,36.33
2023-01-12T03:21:15.417Z,35.57
2023-01-12T03:22:15.417Z,35.52
2023-01-12T03:23:15.384Z,37.56
2023-01-12T03:24:15.366Z,35.75
2023-01-12T03:25:15.371Z,41.88
2023-01-12T03:26:15.302Z,41.20
2023-01-12T03:27:15.294Z,36.68
2023-01-12T03:28:15.251Z,36.08
2023-01-12T03:29:15.262Z,38.30
2023-01-12T03:30:15.217Z,37.92
2023-01-12T03:31:15.250Z,36.45
2023-01-12T03:32:15.247Z,37.52
2023-01-12T03:33:15.141Z,37.66
2023-01-12T03:34:15.121Z,37.27
2023-01-12T03:35:15.101Z,37.54
2023-01-12T03:36:15.095Z,34.70
2023-01-12T03:37:15.059Z,38.22
2023-01-12T03:38:15.035Z,31.41
2023-01-12T03:39:15.025Z,33.30
2023-01-12T03:40:14.987Z,39.73
2023-01-12T03:41:15.074Z,36.32
2023-01-12T03:42:14.942Z,35.60
2023-01-12T03:43:14.914Z,37.28
2023-01-12T03:44:14.910Z,34.59
2023-01-12T03:45:14.857Z,36.55
2023-01-12T03:46:14.841Z,36.89
2023-01-12T03:47:14.814Z,34.50
2023-01-12T03:48:14.802Z,35.64
2023-01-12T03:49:14.846Z,37.32
2023-01-12T03:50:14.723Z,41.87
2023-01-12T03:51:14.690Z,39.11
2023-01-12T03:52:14.692Z,37.14
2023-01-12T03:53:14.632Z,39.83
2023-01-12T03:54:14.606Z,35.55
2023-01-12T03:55:14.571Z,36.37
2023-01-12T03:56:14.548Z,34.19
2023-01-12T03:57:14.577Z,39.29
2023-01-12T03:58:14.491Z,33.41
2023-01-12T03:59:14.462Z,32.71
2023-01-12T04:00:14.448Z,35.89
2023-01-12T04:01:14.698Z,36.05
2023-01-12T04:02:14.430Z,33.65
2023-01-12T04:03:14.420Z,33.82
2023-01-12T04:04:14.339Z,36.89
2023-01-12T04:05:14.313Z,37.23
2023-01-12T04:06:14.290Z,34.35
2023-01-12T04:07:14.291Z,36.37
2023-01-12T04:08:14.249Z,33.02
2023-01-12T04:09:14.209Z,31.84
2023-01-12T04:10:14.177Z,34.77
2023-01-12T04:11:14.143Z,38.48
2023-01-12T04:12:14.121Z,42.26
2023-01-12T04:13:14.131Z,38.47
2023-01-12T04:14:14.072Z,36.57
2023-01-12T04:15:14.050Z,34.99
2023-01-12T04:16:14.086Z,35.11
2023-01-12T04:17:13.995Z,35.59
2023-01-12T04:18:13.988Z,31.93
2023-01-12T04:19:13.941Z,30.68
2023-01-12T04:20:13.921Z,36.12
2023-01-12T04:21:13.939Z,37.23
2023-01-12T04:22:13.868Z,39.74
2023-01-12T04:23:13.853Z,36.69
2023-01-12T04:24:13.822Z,35.32
2023-01-12T04:25:13.823Z,35.57
2023-01-12T04:26:13.803Z,33.81
2023-01-12T04:27:13.746Z,39.40
2023-01-12T04:28:13.725Z,38.65
2023-01-12T04:29:13.727Z,28.53
2023-01-12T04:30:13.696Z,34.04
2023-01-12T04:31:13.657Z,35.96
2023-01-12T04:32:13.627Z,36.95
2023-01-12T04:33:13.600Z,34.82
2023-01-12T04:34:13.568Z,36.28
2023-01-12T04:35:13.606Z,37.43
2023-01-12T04:36:13.517Z,36.30
2023-01-12T04:37:13.536Z,38.43
2023-01-12T04:38:13.474Z,35.15
2023-01-12T04:39:13.441Z,36.30
2023-01-12T04:40:13.420Z,38.44
2023-01-12T04:41:13.393Z,33.89
2023-01-12T04:42:13.400Z,34.15
2023-01-12T04:43:13.349Z,33.99
2023-01-12T04:44:13.324Z,34.57
2023-01-12T04:45:13.331Z,31.91
2023-01-12T04:46:13.336Z,34.92
2023-01-12T04:47:13.330Z,37.67
2023-01-12T04:48:13.232Z,39.19
2023-01-12T04:49:13.200Z,39.60
2023-01-12T04:50:13.184Z,39.24
2023-01-12T04:51:13.153Z,35.34
2023-01-12T04:52:13.968Z,34.93
2023-01-12T04:53:13.264Z,34.37
2023-01-12T04:54:13.087Z,32.06
2023-01-12T04:55:13.051Z,27.73
2023-01-12T04:56:13.033Z,39.44
2023-01-12T04:57:13.004Z,36.94
2023-01-12T04:58:12.982Z,38.96
2023-01-12T04:59:12.962Z,38.06
2023-01-12T05:00:12.938Z,38.35
2023-01-12T05:01:13.076Z,42.87
2023-01-12T05:02:12.971Z,34.40
2023-01-12T05:03:12.849Z,38.77
2023-01-12T05:04:12.850Z,35.85
2023-01-12T05:05:12.796Z,35.23
2023-01-12T05:06:12.784Z,33.47
2023-01-12T05:07:12.806Z,33.43
2023-01-12T05:08:12.719Z,36.89
2023-01-12T05:09:12.696Z,35.94
2023-01-12T05:10:12.672Z,34.68
2023-01-12T05:11:12.636Z,36.64
2023-01-12T05:12:12.667Z,37.58
2023-01-12T05:13:12.582Z,35.19
2023-01-12T05:14:12.556Z,37.53
2023-01-12T05:15:12.547Z,36.01
2023-01-12T05:16:12.578Z,39.03
2023-01-12T05:17:12.499Z,33.31
2023-01-12T05:18:12.444Z,32.75
2023-01-12T05:19:12.405Z,34.33
2023-01-12T05:20:12.371Z,38.65
2023-01-12T05:21:12.355Z,39.46
2023-01-12T05:22:12.317Z,34.71
2023-01-12T05:23:12.290Z,36.29
2023-01-12T05:24:12.257Z,37.88
2023-01-12T05:25:12.237Z,38.58
2023-01-12T05:26:12.206Z,34.17
2023-01-12T05:27:12.179Z,34.69
2023-01-12T05:28:12.197Z,38.14
2023-01-12T05:29:12.127Z,35.66
2023-01-12T05:30:12.085Z,34.54
2023-01-12T05:31:12.173Z,41.34
2023-01-12T05:32:12.039Z,40.28
2023-01-12T05:33:12.027Z,39.31
2023-01-12T05:34:11.968Z,34.72
2023-01-12T05:35:11.944Z,32.80
2023-01-12T05:36:11.924Z,29.69
2023-01-12T05:37:11.911Z,36.79
2023-01-12T05:38:11.907Z,38.24
2023-01-12T05:39:11.829Z,34.36
2023-01-12T05:40:11.809Z,39.54
2023-01-12T05:41:11.831Z,40.40
2023-01-12T05:42:11.807Z,31.93
2023-01-12T05:43:11.744Z,38.43
2023-01-12T05:44:11.718Z,40.09
2023-01-12T05:45:11.698Z,38.71
2023-01-12T05:46:11.768Z,33.13
2023-01-12T05:47:11.654Z,41.54
2023-01-12T05:48:11.631Z,37.70
2023-01-12T05:49:11.633Z,42.81
2023-01-12T05:50:11.574Z,37.40
2023-01-12T05:51:11.551Z,37.41
2023-01-12T05:52:11.543Z,37.16
2023-01-12T05:53:11.549Z,35.90
2023-01-12T05:54:11.484Z,35.59
2023-01-12T05:55:11.494Z,38.94
2023-01-12T05:56:11.448Z,45.16
2023-01-12T05:57:11.402Z,42.64
2023-01-12T05:58:11.373Z,42.13
2023-01-12T05:59:11.342Z,42.70
2023-01-12T06:00:11.317Z,31.83
2023-01-12T06:01:11.372Z,38.35
2023-01-12T06:02:11.392Z,38.30
2023-01-12T06:03:11.262Z,41.65
2023-01-12T06:04:11.249Z,36.40
2023-01-12T06:05:11.227Z,38.99
2023-01-12T06:06:11.160Z,39.11
2023-01-12T06:07:11.124Z,36.29
2023-01-12T06:08:11.110Z,29.63
2023-01-12T06:09:11.095Z,38.54
2023-01-12T06:10:11.039Z,34.40
2023-01-12T06:11:11.010Z,36.28
2023-01-12T06:12:10.989Z,37.81
2023-01-12T06:13:10.949Z,37.32
2023-01-12T06:14:10.921Z,32.51
2023-01-12T06:15:10.902Z,34.68
2023-01-12T06:16:10.899Z,40.07
2023-01-12T06:17:10.832Z,37.37
2023-01-12T06:18:10.804Z,39.01
2023-01-12T06:19:12.649Z,37.19
2023-01-12T06:20:10.730Z,42.23
2023-01-12T06:21:10.731Z,39.37
2023-01-12T06:22:11.025Z,35.39
2023-01-12T06:23:10.666Z,41.71
2023-01-12T06:24:11.038Z,40.10
2023-01-12T06:25:10.624Z,42.53
2023-01-12T06:26:10.767Z,39.32
2023-01-12T06:27:10.539Z,38.07
2023-01-12T06:28:10.498Z,36.19
2023-01-12T06:29:10.581Z,36.85
2023-01-12T06:30:10.448Z,37.03
2023-01-12T06:31:10.473Z,32.01
2023-01-12T06:32:11.013Z,35.81
2023-01-12T06:33:10.359Z,36.34
2023-01-12T06:34:10.544Z,32.97
2023-01-12T06:35:19.200Z,34.83
2023-01-12T06:36:10.271Z,35.30
2023-01-12T06:37:10.272Z,35.76
2023-01-12T06:38:10.219Z,36.14
2023-01-12T06:39:10.183Z,31.44
2023-01-12T06:40:10.153Z,35.89
2023-01-12T06:41:10.128Z,38.33
2023-01-12T06:42:10.989Z,40.51
2023-01-12T06:43:10.538Z,42.65
2023-01-12T06:44:10.619Z,45.13
2023-01-12T06:45:10.640Z,32.32
2023-01-12T06:46:10.504Z,36.32
2023-01-12T06:47:09.967Z,39.92
2023-01-12T06:48:09.923Z,41.27
2023-01-12T06:49:09.899Z,36.33
2023-01-12T06:50:10.034Z,38.92
2023-01-12T06:51:09.837Z,46.69
2023-01-12T06:52:09.805Z,55.27
2023-01-12T06:53:10.046Z,57.90
2023-01-12T06:54:09.759Z,60.83
2023-01-12T06:55:10.062Z,53.05
2023-01-12T06:56:09.709Z,53.68
2023-01-12T06:57:09.665Z,52.70
2023-01-12T06:58:09.636Z,54.98
2023-01-12T06:59:09.986Z,45.15
2023-01-12T07:00:10.119Z,52.22
2023-01-12T07:01:09.674Z,56.96
2023-01-12T07:02:09.619Z,55.54
2023-01-12T07:03:09.496Z,59.00
2023-01-12T07:04:09.495Z,61.15
2023-01-12T07:05:09.425Z,64.44
2023-01-12T07:06:09.826Z,58.84
2023-01-12T07:07:09.396Z,57.07
2023-01-12T07:08:09.371Z,49.34
2023-01-12T07:09:09.421Z,58.10
2023-01-12T07:10:09.511Z,62.89
2023-01-12T07:11:09.732Z,65.64
2023-01-12T07:12:09.293Z,61.18
2023-01-12T07:13:09.608Z,66.22
2023-01-12T07:14:09.471Z,67.35
2023-01-12T07:15:09.227Z,65.49
2023-01-12T07:16:09.286Z,69.24
2023-01-12T07:17:10.140Z,71.72
2023-01-12T07:18:09.099Z,74.30
2023-01-12T07:19:09.058Z,71.78
2023-01-12T07:20:09.116Z,70.35
2023-01-12T07:21:09.018Z,66.71
2023-01-12T07:22:08.987Z,70.78
2023-01-12T07:23:09.952Z,71.52
2023-01-12T07:24:08.948Z,76.86
2023-01-12T07:25:10.158Z,79.24
2023-01-12T07:26:08.855Z,78.11
2023-01-12T07:27:09.070Z,79.87
2023-01-12T07:28:08.803Z,77.75
2023-01-12T07:29:08.777Z,81.15
2023-01-12T07:30:09.121Z,78.54
2023-01-12T07:31:08.795Z,78.86
2023-01-12T07:32:09.204Z,77.28
2023-01-12T07:33:09.265Z,78.13
2023-01-12T07:34:08.664Z,79.79
2023-01-12T07:35:09.267Z,80.26
2023-01-12T07:36:09.366Z,78.86
2023-01-12T07:37:08.587Z,74.99
2023-01-12T07:38:08.534Z,79.21
2023-01-12T07:39:08.513Z,73.55
2023-01-12T07:40:08.464Z,76.90
2023-01-12T07:41:08.714Z,74.42
2023-01-12T07:42:08.576Z,75.56
2023-01-12T07:43:08.388Z,78.82
2023-01-12T07:44:09.394Z,76.55
2023-01-12T07:45:08.355Z,73.84
2023-01-12T07:46:08.393Z,75.20
2023-01-12T07:47:10.638Z,77.23
2023-01-12T07:48:08.272Z,73.95
2023-01-12T07:49:09.376Z,73.69
2023-01-12T07:50:08.167Z,75.60
2023-01-12T07:51:08.164Z,71.97
2023-01-12T07:52:11.350Z,74.63
2023-01-12T07:53:09.110Z,74.92
2023-01-12T07:54:08.105Z,74.94
2023-01-12T07:55:08.046Z,72.55
2023-01-12T07:56:08.165Z,70.36
2023-01-12T07:57:08.105Z,70.94
2023-01-12T07:58:07.917Z,70.21
2023-01-12T07:59:07.887Z,74.26
2023-01-12T08:00:08.140Z,68.79
2023-01-12T08:01:07.904Z,69.54
2023-01-12T08:02:07.885Z,72.05
2023-01-12T08:03:07.771Z,72.34
2023-01-12T08:04:15.143Z,70.18
2023-01-12T08:05:07.729Z,70.53
2023-01-12T08:06:07.825Z,70.84
2023-01-12T08:07:07.746Z,70.24
2023-01-12T08:08:07.644Z,71.23
2023-01-12T08:09:07.615Z,68.97
2023-01-12T08:10:07.588Z,68.95
2023-01-12T08:11:07.624Z,64.93
2023-01-12T08:12:07.629Z,66.56
2023-01-12T08:13:07.552Z,65.70
2023-01-12T08:14:07.489Z,66.32
2023-01-12T08:15:07.472Z,65.84
2023-01-12T08:16:07.463Z,64.78
2023-01-12T08:17:07.497Z,64.55
2023-01-12T08:18:07.571Z,63.06
2023-01-12T08:19:07.412Z,63.68
2023-01-12T08:20:07.386Z,61.10
2023-01-12T08:21:07.592Z,62.79
2023-01-12T08:22:07.314Z,64.72
2023-01-12T08:23:07.290Z,62.58
2023-01-12T08:24:07.240Z,63.01
2023-01-12T08:25:07.208Z,64.56
2023-01-12T08:26:07.214Z,61.47
2023-01-12T08:27:07.163Z,59.45
2023-01-12T08:28:07.132Z,59.13
2023-01-12T08:29:07.120Z,62.04
2023-01-12T08:30:07.071Z,62.75
2023-01-12T08:31:07.049Z,59.36
2023-01-12T08:33:05.965Z,59.54
2023-01-12T08:34:06.998Z,58.66
2023-01-12T08:35:06.912Z,59.05
2023-01-12T08:36:06.882Z,58.34
2023-01-12T08:37:07.062Z,56.91
2023-01-12T08:38:06.821Z,57.14
2023-01-12T08:39:06.786Z,60.20
2023-01-12T08:40:06.750Z,54.97
2023-01-12T08:41:06.731Z,54.31
2023-01-12T08:42:07.067Z,56.87
2023-01-12T08:43:07.097Z,55.11
2023-01-12T08:44:06.679Z,64.70
2023-01-12T08:45:06.736Z,60.11
2023-01-12T08:46:06.647Z,69.32
2023-01-12T08:47:06.564Z,63.38
2023-01-12T08:48:06.532Z,62.87
2023-01-12T08:49:06.588Z,64.15
2023-01-12T08:50:06.476Z,70.45
2023-01-12T08:51:06.747Z,73.31
2023-01-12T08:52:06.605Z,79.73
2023-01-12T08:53:06.414Z,89.07
2023-01-12T08:54:06.348Z,89.35
2023-01-12T08:55:07.480Z,92.08
2023-01-12T08:56:06.856Z,96.98
2023-01-12T08:57:07.248Z,99.72
2023-01-12T08:58:06.562Z,99.63
2023-01-12T08:59:06.194Z,101.08
2023-01-12T09:00:06.159Z,104.90
2023-01-12T09:01:06.287Z,107.33
2023-01-12T09:02:06.872Z,109.29
2023-01-12T09:03:06.063Z,113.01
2023-01-12T09:04:06.113Z,114.03
2023-01-12T09:05:05.991Z,117.51
2023-01-12T09:06:05.961Z,123.93
2023-01-12T09:07:06.102Z,122.82
2023-01-12T09:08:05.887Z,127.91
2023-01-12T09:09:05.871Z,126.88
2023-01-12T09:10:05.818Z,127.73
2023-01-12T09:11:05.826Z,76.74
2023-01-12T09:12:06.112Z,83.37
2023-01-12T09:13:05.783Z,71.88
2023-01-12T09:14:05.822Z,68.97
2023-01-12T09:15:05.831Z,58.45
2023-01-12T09:16:12.617Z,55.39
2023-01-12T09:17:05.994Z,55.76
2023-01-12T09:18:05.844Z,56.25
2023-01-12T09:19:05.869Z,54.49
2023-01-12T09:20:05.842Z,51.91
2023-01-12T09:21:05.848Z,53.65
2023-01-12T09:22:06.159Z,64.18
2023-01-12T09:23:05.801Z,76.25
2023-01-12T09:24:05.781Z,82.46
2023-01-12T09:25:05.756Z,84.59
2023-01-12T09:26:05.729Z,93.47
2023-01-12T09:27:05.737Z,98.67
2023-01-12T09:28:05.695Z,102.96
2023-01-12T09:29:06.112Z,104.41
2023-01-12T09:30:05.652Z,112.89
2023-01-12T09:31:05.600Z,115.74
2023-01-12T09:32:05.591Z,120.15
2023-01-12T09:33:05.572Z,129.08
2023-01-12T09:34:05.636Z,133.19
2023-01-12T09:35:05.482Z,135.63
2023-01-12T09:36:05.456Z,137.86
2023-01-12T09:37:07.084Z,139.33
2023-01-12T09:38:05.539Z,143.99
2023-01-12T09:39:06.135Z,147.17
2023-01-12T09:40:05.592Z,153.30
2023-01-12T09:41:05.434Z,155.25
2023-01-12T09:42:05.423Z,156.06
2023-01-12T09:44:05.369Z,157.65
2023-01-12T09:45:05.671Z,159.34
2023-01-12T09:46:06.074Z,160.86
2023-01-12T09:47:05.281Z,157.33
2023-01-12T09:48:05.257Z,159.58
2023-01-12T09:49:05.203Z,162.95
2023-01-12T09:50:10.240Z,168.98
2023-01-12T09:51:05.169Z,157.97
2023-01-12T09:52:05.069Z,161.18
2023-01-12T09:53:06.116Z,134.56
2023-01-12T09:54:04.016Z,136.95
2023-01-12T09:55:05.109Z,128.72
2023-01-12T09:56:04.940Z,123.44
2023-01-12T09:57:04.894Z,119.97
2023-01-12T09:58:04.872Z,117.03
2023-01-12T09:59:05.109Z,113.74
2023-01-12T10:00:05.156Z,109.93
2023-01-12T10:01:04.814Z,105.69
2023-01-12T10:02:04.984Z,97.77
2023-01-12T10:03:05.293Z,99.74
2023-01-12T10:04:04.654Z,96.54
2023-01-12T10:05:04.668Z,95.34
2023-01-12T10:06:04.610Z,88.05
2023-01-12T10:07:04.567Z,88.09
2023-01-12T10:08:04.525Z,87.04
2023-01-12T10:09:04.609Z,85.99
2023-01-12T10:10:04.477Z,83.67
2023-01-12T10:11:04.698Z,82.72
2023-01-12T10:12:04.393Z,84.25
2023-01-12T10:13:04.363Z,84.53
2023-01-12T10:14:04.327Z,85.64
2023-01-12T10:15:04.298Z,81.93
2023-01-12T10:16:04.356Z,79.83
2023-01-12T10:17:04.621Z,74.79
2023-01-12T10:18:04.637Z,76.55
2023-01-12T10:19:04.174Z,77.87
2023-01-12T10:20:04.649Z,76.24
2023-01-12T10:21:04.168Z,76.38
2023-01-12T10:22:04.062Z,76.72
2023-01-12T10:23:04.031Z,69.87
2023-01-12T10:24:03.995Z,78.35
2023-01-12T10:25:03.984Z,77.34
2023-01-12T10:26:04.128Z,71.77
2023-01-12T10:27:03.898Z,71.39
2023-01-12T10:28:03.881Z,69.78
2023-01-12T10:29:03.852Z,69.17
2023-01-12T10:30:04.192Z,66.58
2023-01-12T10:31:03.772Z,69.80
2023-01-12T10:32:03.719Z,64.37
2023-01-12T10:33:03.707Z,65.67
2023-01-12T10:34:04.132Z,66.44
2023-01-12T10:35:03.706Z,56.97
2023-01-12T10:36:04.560Z,54.33
2023-01-12T10:37:03.555Z,54.85
2023-01-12T10:38:03.528Z,58.65
2023-01-12T10:39:03.498Z,62.09
2023-01-12T10:40:03.439Z,62.15
2023-01-12T10:41:03.782Z,58.69
2023-01-12T10:42:03.377Z,64.46
2023-01-12T10:43:06.652Z,60.87
2023-01-12T10:44:03.661Z,61.23
2023-01-12T10:45:03.258Z,62.48
2023-01-12T10:46:03.302Z,62.01
2023-01-12T10:47:03.182Z,63.94
2023-01-12T10:48:03.219Z,51.54
2023-01-12T10:49:03.194Z,50.97
2023-01-12T10:50:03.083Z,63.34
2023-01-12T10:51:03.042Z,69.83
2023-01-12T10:52:03.141Z,71.72
2023-01-12T10:53:03.010Z,58.21
2023-01-12T10:54:02.960Z,61.74
2023-01-12T10:55:02.921Z,63.32
2023-01-12T10:56:02.877Z,64.11
2023-01-12T10:57:03.168Z,70.62
2023-01-12T10:58:02.844Z,67.08
2023-01-12T10:59:02.889Z,66.54
2023-01-12T11:00:02.781Z,76.38
2023-01-12T11:01:02.793Z,74.21
2023-01-12T11:02:03.456Z,66.59
2023-01-12T11:03:02.749Z,66.75
2023-01-12T11:04:02.660Z,66.41
2023-01-12T11:05:02.541Z,74.24
2023-01-12T11:06:02.512Z,74.64
2023-01-12T11:07:05.127Z,76.77
2023-01-12T11:08:03.140Z,77.07
2023-01-12T11:09:02.691Z,77.03
2023-01-12T11:10:02.363Z,63.15
2023-01-12T11:11:02.658Z,75.74
2023-01-12T11:12:02.298Z,68.84
2023-01-12T11:13:02.263Z,66.76
2023-01-12T11:14:02.228Z,71.99
2023-01-12T11:15:02.247Z,65.02
2023-01-12T11:16:02.156Z,56.36
2023-01-12T11:17:02.128Z,68.25
2023-01-12T11:18:02.088Z,67.97
2023-01-12T11:19:02.040Z,75.13
2023-01-12T11:20:02.182Z,74.25
2023-01-12T11:21:02.023Z,73.44
2023-01-12T11:22:01.964Z,73.17
2023-01-12T11:23:01.908Z,67.31
2023-01-12T11:24:01.952Z,69.61
2023-01-12T11:25:02.226Z,72.39
2023-01-12T11:26:01.831Z,67.79
2023-01-12T11:27:01.930Z,69.48
2023-01-12T11:28:01.753Z,70.04
2023-01-12T11:29:01.715Z,62.48
2023-01-12T11:30:01.682Z,61.46
2023-01-12T11:31:02.199Z,65.03
2023-01-12T11:32:01.659Z,62.73
2023-01-12T11:33:01.594Z,62.81
2023-01-12T11:34:01.544Z,59.50
2023-01-12T11:35:03.797Z,65.18
2023-01-12T11:36:01.673Z,61.94
2023-01-12T11:37:01.473Z,64.90
2023-01-12T11:38:01.423Z,63.01
2023-01-12T11:39:01.435Z,69.63
2023-01-12T11:40:01.374Z,69.98
2023-01-12T11:41:01.375Z,65.13
2023-01-12T11:42:01.323Z,62.05
2023-01-12T11:43:01.288Z,68.65
2023-01-12T11:44:01.277Z,55.61
2023-01-12T11:45:01.228Z,60.39
2023-01-12T11:46:01.254Z,63.20
2023-01-12T11:47:01.169Z,61.78
2023-01-12T11:48:01.146Z,63.60
2023-01-12T11:49:01.110Z,63.21
2023-01-12T11:50:01.161Z,64.23
2023-01-12T11:51:01.107Z,51.26
2023-01-12T11:52:01.015Z,44.92
2023-01-12T11:53:01.031Z,54.43
2023-01-12T11:54:01.048Z,55.06
2023-01-12T11:55:00.916Z,58.87
2023-01-12T11:56:00.881Z,60.85
2023-01-12T11:57:00.875Z,51.11
2023-01-12T11:58:00.816Z,57.32
2023-01-12T11:59:00.819Z,55.16
2023-01-12T12:00:01.197Z,52.00
2023-01-12T12:01:00.750Z,63.33
2023-01-12T12:02:00.763Z,60.87
2023-01-12T12:03:00.659Z,58.37
2023-01-12T12:04:00.729Z,56.80
2023-01-12T12:05:00.699Z,59.18
2023-01-12T12:06:00.552Z,55.05
2023-01-12T12:07:00.683Z,58.16
2023-01-12T12:08:00.491Z,58.51
2023-01-12T12:09:00.448Z,52.53
2023-01-12T12:10:00.406Z,54.53
2023-01-12T12:11:00.683Z,52.49
2023-01-12T12:12:00.716Z,50.26
2023-01-12T12:13:00.346Z,55.16
2023-01-12T12:14:00.290Z,52.88
2023-01-12T12:15:00.246Z,52.68
2023-01-12T12:16:00.258Z,51.37
2023-01-12T12:17:00.194Z,49.11
2023-01-12T12:18:00.110Z,52.12
2023-01-12T12:19:00.103Z,47.62
2023-01-12T12:20:00.053Z,46.33
2023-01-12T12:21:00.047Z,49.01
2023-01-12T12:21:59.987Z,48.13
2023-01-12T12:22:59.965Z,50.71
2023-01-12T12:23:59.925Z,49.98
2023-01-12T12:24:59.888Z,46.12
2023-01-12T12:26:00.229Z,44.86
2023-01-12T12:26:59.830Z,46.48
2023-01-12T12:27:59.797Z,48.13
2023-01-12T12:28:59.793Z,44.20
2023-01-12T12:29:59.736Z,43.04
2023-01-12T12:31:00.247Z,41.47
2023-01-12T12:31:59.666Z,42.00
2023-01-12T12:32:59.638Z,45.24
2023-01-12T12:33:59.596Z,40.49
2023-01-12T12:34:59.569Z,35.00
2023-01-12T12:35:59.683Z,36.20
2023-01-12T12:36:59.491Z,29.35
2023-01-12T12:37:59.452Z,41.09
2023-01-12T12:38:59.422Z,43.33
2023-01-12T12:39:59.380Z,44.60
2023-01-12T12:40:59.361Z,43.49
2023-01-12T12:41:59.306Z,41.47
2023-01-12T12:42:59.268Z,36.54
2023-01-12T12:43:59.721Z,39.57
2023-01-12T12:44:59.238Z,42.24
2023-01-12T12:45:59.220Z,39.11
2023-01-12T12:46:59.173Z,35.91
2023-01-12T12:47:59.101Z,37.10
2023-01-12T12:48:59.071Z,42.28
2023-01-12T12:49:59.079Z,41.07
2023-01-12T12:50:59.040Z,37.97
2023-01-12T12:51:58.978Z,42.12
2023-01-12T12:52:58.916Z,36.75
2023-01-12T12:53:58.887Z,37.92
2023-01-12T12:54:58.853Z,36.97
2023-01-12T12:55:59.191Z,32.22
2023-01-12T12:56:58.915Z,32.62
2023-01-12T12:57:58.721Z,39.12
2023-01-12T12:58:58.697Z,41.93
2023-01-12T12:59:58.685Z,39.99
2023-01-12T13:00:58.673Z,39.02
2023-01-12T13:01:58.746Z,38.38
2023-01-12T13:02:58.748Z,36.40
2023-01-12T13:03:58.514Z,35.49
2023-01-12T13:04:58.463Z,37.55
2023-01-12T13:05:58.455Z,34.62
2023-01-12T13:06:58.388Z,36.17
2023-01-12T13:07:58.353Z,33.45
2023-01-12T13:08:58.315Z,35.54
2023-01-12T13:09:58.281Z,32.39
2023-01-12T13:10:58.252Z,34.66
2023-01-12T13:11:58.702Z,34.82
2023-01-12T13:12:58.171Z,31.41
2023-01-12T13:13:58.221Z,32.69
2023-01-12T13:14:58.683Z,34.87
2023-01-12T13:15:58.122Z,29.47
2023-01-12T13:16:58.227Z,31.98
2023-01-12T13:17:58.006Z,33.84
2023-01-12T13:18:57.967Z,25.79
2023-01-12T13:20:01.380Z,39.41
2023-01-12T13:20:57.897Z,39.99
2023-01-12T13:21:58.241Z,39.69
2023-01-12T13:22:57.829Z,40.01
2023-01-12T13:23:57.790Z,41.78
2023-01-12T13:24:57.756Z,41.67
2023-01-12T13:25:57.911Z,41.39
2023-01-12T13:26:58.198Z,42.06
2023-01-12T13:27:57.728Z,50.00
2023-01-12T13:28:57.627Z,43.12
2023-01-12T13:29:57.587Z,41.02
2023-01-12T13:30:57.565Z,43.15
2023-01-12T13:31:57.732Z,45.86
2023-01-12T13:32:57.522Z,44.32
2023-01-12T13:33:57.464Z,40.97
2023-01-12T13:34:57.427Z,36.96
2023-01-12T13:35:57.401Z,33.67
2023-01-12T13:36:57.358Z,41.52
2023-01-12T13:37:57.443Z,46.04
2023-01-12T13:38:57.302Z,42.70
2023-01-12T13:39:57.286Z,43.26
2023-01-12T13:40:57.227Z,42.66
2023-01-12T13:41:57.190Z,42.35
2023-01-12T13:42:57.165Z,42.66
2023-01-12T13:43:57.193Z,40.41
2023-01-12T13:44:57.096Z,43.27
2023-01-12T13:45:57.068Z,39.24
2023-01-12T13:46:57.026Z,34.72
2023-01-12T13:47:56.982Z,32.69
2023-01-12T13:48:57.040Z,41.79
2023-01-12T13:49:57.232Z,41.25
2023-01-12T13:50:56.893Z,42.94
2023-01-12T13:51:56.846Z,35.79
2023-01-12T13:52:56.813Z,33.45
2023-01-12T13:53:56.781Z,41.54